Time;durP1;ratioP1;P1;durP2;ratioP2;P2;SDS_P1;SDS_P2;PMS_P1;PMS_P2;Temp;Humidity;BMP_temperature;BMP_pressure;BME280_temperature;BME280_humidity;BME280_pressure;Samples;Min_cycle;Max_cycle;Signal;HPM_P1;HPM_P2
2021/03/12 00:00:22;;;;;;;338.52;301.75;;;;;;;;;;5093110;28;20377;-66
2021/03/12 00:02:48;;;;;;;364.52;326.55;;;;;;;;;;5086409;28;20116;-66
2021/03/12 00:05:14;;;;;;;377.90;339.55;;;;;;;;;;5092270;28;20532;-66
2021/03/12 00:07:40;;;;;;;364.63;326.75;;;;;;;;;;5088416;28;20044;-66
2021/03/12 00:10:08;;;;;;;351.42;313.73;;;;;;;;;;5085396;28;20070;-70
2021/03/12 00:12:34;;;;;;;380.90;342.10;;;;;;;;;;5071091;28;20120;-66
2021/03/12 00:15:00;;;;;;;1905.30;999.90;;;;;;;;;;5075101;28;20028;-73
2021/03/12 00:17:26;;;;;;;369.30;330.65;;;;;;;;;;5071983;28;20031;-66
2021/03/12 00:19:52;;;;;;;374.38;336.15;;;;;;;;;;5073765;28;20034;-67
2021/03/12 00:22:18;;;;;;;347.10;309.92;;;;;;;;;;5065599;28;20049;-76
2021/03/12 00:24:45;;;;;;;328.02;289.50;;;;;;;;;;5075440;28;20086;-78
2021/03/12 00:27:11;;;;;;;411.20;371.38;;;;;;;;;;5073868;28;20404;-67
2021/03/12 00:29:37;;;;;;;334.42;297.65;;;;;;;;;;5066594;28;20043;-66
2021/03/12 00:32:03;;;;;;;369.35;330.75;;;;;;;;;;5077059;28;20032;-66
2021/03/12 00:34:29;;;;;;;366.50;328.52;;;;;;;;;;5081195;28;20107;-67
2021/03/12 00:36:55;;;;;;;365.25;327.27;;;;;;;;;;5085492;28;20067;-66
2021/03/12 00:39:21;;;;;;;354.27;316.45;;;;;;;;;;5076426;28;20067;-66
2021/03/12 00:41:48;;;;;;;367.38;329.55;;;;;;;;;;5068384;28;20031;-74
2021/03/12 00:44:14;;;;;;;378.27;339.65;;;;;;;;;;5082672;28;20050;-66
2021/03/12 00:46:40;;;;;;;373.23;334.88;;;;;;;;;;5080714;28;20412;-66
2021/03/12 00:49:06;;;;;;;381.40;342.85;;;;;;;;;;5087081;28;20032;-67
2021/03/12 00:51:32;;;;;;;345.23;307.95;;;;;;;;;;5078655;28;20514;-67
2021/03/12 00:53:58;;;;;;;398.38;358.95;;;;;;;;;;5091217;28;20475;-66
2021/03/12 00:56:24;;;;;;;371.38;333.23;;;;;;;;;;5082815;28;20408;-66
2021/03/12 00:58:50;;;;;;;369.00;330.67;;;;;;;;;;5071965;28;20029;-78
2021/03/12 01:01:16;;;;;;;367.92;329.52;;;;;;;;;;5070133;28;20048;-66
2021/03/12 01:03:44;;;;;;;369.00;330.98;;;;;;;;;;5072026;28;20476;-66
2021/03/12 01:06:09;;;;;;;365.08;327.17;;;;;;;;;;5078542;28;20028;-66
2021/03/12 01:08:36;;;;;;;401.35;361.98;;;;;;;;;;5074630;28;20036;-66
2021/03/12 01:11:02;;;;;;;524.55;469.85;;;;;;;;;;5073270;28;20050;-65
2021/03/12 01:13:28;;;;;;;370.23;332.15;;;;;;;;;;5071881;28;20044;-66
2021/03/12 01:15:54;;;;;;;367.83;329.58;;;;;;;;;;5073426;28;20037;-65
2021/03/12 01:18:20;;;;;;;344.67;307.48;;;;;;;;;;5077119;28;20365;-66
2021/03/12 01:20:46;;;;;;;363.88;325.70;;;;;;;;;;5079779;28;20471;-66
2021/03/12 01:23:12;;;;;;;361.73;323.98;;;;;;;;;;5065520;28;20473;-66
2021/03/12 01:25:39;;;;;;;372.35;334.02;;;;;;;;;;5070869;28;20103;-66
2021/03/12 01:28:06;;;;;;;383.48;344.35;;;;;;;;;;5079031;28;20028;-66
2021/03/12 01:30:35;;;;;;;380.27;341.88;;;;;;;;;;5090895;28;20040;-66
2021/03/12 01:33:01;;;;;;;353.85;316.40;;;;;;;;;;5078607;28;20523;-74
2021/03/12 01:35:27;;;;;;;388.38;349.27;;;;;;;;;;5082755;28;20362;-66
2021/03/12 01:37:54;;;;;;;347.08;309.60;;;;;;;;;;5084090;28;20040;-66
2021/03/12 01:40:21;;;;;;;1446.13;999.90;;;;;;;;;;5095208;28;20525;-66
2021/03/12 01:42:47;;;;;;;375.05;336.38;;;;;;;;;;5075441;28;20089;-66
2021/03/12 01:45:16;;;;;;;382.75;343.65;;;;;;;;;;5094083;28;20024;-65
2021/03/12 01:47:43;;;;;;;370.88;332.30;;;;;;;;;;5066669;28;20119;-76
2021/03/12 01:50:10;;;;;;;372.52;333.92;;;;;;;;;;5095095;28;20024;-66
2021/03/12 01:52:37;;;;;;;379.10;340.50;;;;;;;;;;5076513;28;20036;-65
2021/03/12 01:55:05;;;;;;;387.58;348.55;;;;;;;;;;5075727;28;20033;-76
2021/03/12 01:57:31;;;;;;;335.65;298.90;;;;;;;;;;5075347;28;20032;-66
2021/03/12 01:59:57;;;;;;;404.77;364.90;;;;;;;;;;5076216;28;20488;-67
2021/03/12 02:02:23;;;;;;;341.08;303.90;;;;;;;;;;5073095;28;20074;-67
2021/03/12 02:04:49;;;;;;;377.77;338.73;;;;;;;;;;5066772;28;20476;-71
2021/03/12 02:07:15;;;;;;;402.90;363.23;;;;;;;;;;5078686;28;20036;-67
2021/03/12 02:09:41;;;;;;;375.00;336.38;;;;;;;;;;5076526;28;20028;-66
2021/03/12 02:12:07;;;;;;;387.50;348.35;;;;;;;;;;5083320;28;20035;-66
2021/03/12 02:14:42;;;;;;;357.00;319.38;;;;;;;;;;5074087;28;20123;-67
2021/03/12 02:17:15;;;;;;;1426.13;999.90;;;;;;;;;;5078476;28;20041;-66
2021/03/12 02:19:41;;;;;;;339.98;302.70;;;;;;;;;;5077158;28;20029;-66
2021/03/12 02:22:08;;;;;;;371.58;333.13;;;;;;;;;;5076634;28;20035;-66
2021/03/12 02:24:46;;;;;;;382.07;342.83;;;;;;;;;;5083501;28;20024;-67
2021/03/12 02:27:13;;;;;;;347.05;310.00;;;;;;;;;;5075609;28;20089;-66
2021/03/12 02:29:44;;;;;;;372.77;333.73;;;;;;;;;;5083132;28;20051;-67
2021/03/12 02:32:11;;;;;;;383.63;344.63;;;;;;;;;;5082432;28;20029;-66
2021/03/12 02:34:39;;;;;;;1932.38;999.90;;;;;;;;;;5080624;28;20032;-66
2021/03/12 02:37:05;;;;;;;;;;;;;;;;;;5083164;28;20524;-72
2021/03/12 02:39:32;;;;;;;377.52;338.50;;;;;;;;;;5092402;28;19937;-66
2021/03/12 02:41:59;;;;;;;335.85;298.92;;;;;;;;;;5079658;28;20031;-66
2021/03/12 02:44:26;;;;;;;356.60;318.65;;;;;;;;;;5069477;28;20484;-66
2021/03/12 02:46:54;;;;;;;395.08;355.80;;;;;;;;;;5073325;28;20491;-66
2021/03/12 02:49:21;;;;;;;389.42;350.10;;;;;;;;;;5074453;28;20457;-66
2021/03/12 02:51:47;;;;;;;351.80;314.13;;;;;;;;;;5072453;28;20036;-66
2021/03/12 02:54:14;;;;;;;391.70;352.42;;;;;;;;;;5072744;28;20033;-66
2021/03/12 02:56:41;;;;;;;373.33;334.95;;;;;;;;;;5072640;28;20051;-66
2021/03/12 02:59:07;;;;;;;367.00;328.73;;;;;;;;;;5073983;28;20036;-66
2021/03/12 03:01:34;;;;;;;366.05;328.02;;;;;;;;;;5072376;28;20032;-66
2021/03/12 03:04:00;;;;;;;365.80;327.63;;;;;;;;;;5074210;28;20029;-66
2021/03/12 03:06:27;;;;;;;386.33;347.13;;;;;;;;;;5072689;28;20524;-67
2021/03/12 03:08:53;;;;;;;383.25;344.60;;;;;;;;;;5074225;28;20024;-76
2021/03/12 03:11:19;;;;;;;345.65;308.05;;;;;;;;;;5068545;28;20040;-66
2021/03/12 03:13:46;;;;;;;403.15;363.27;;;;;;;;;;5073180;28;20040;-67
2021/03/12 03:16:21;;;;;;;382.30;343.63;;;;;;;;;;5069154;28;20024;-68
2021/03/12 03:18:47;;;;;;;1464.75;999.90;;;;;;;;;;5075378;28;20012;-66
2021/03/12 03:21:15;;;;;;;384.38;345.52;;;;;;;;;;5074064;28;20032;-66
2021/03/12 03:23:41;;;;;;;;;;;;;;;;;;5075977;28;20033;-66
2021/03/12 03:26:07;;;;;;;1469.10;999.90;;;;;;;;;;5073442;28;19970;-66
2021/03/12 03:28:34;;;;;;;340.90;303.73;;;;;;;;;;5076808;28;20066;-66
2021/03/12 03:31:00;;;;;;;382.73;343.90;;;;;;;;;;5077571;28;20036;-77
2021/03/12 03:33:26;;;;;;;381.52;342.30;;;;;;;;;;5078019;28;20381;-67
2021/03/12 03:35:52;;;;;;;351.52;313.40;;;;;;;;;;5071250;28;20115;-68
2021/03/12 03:38:18;;;;;;;403.83;364.15;;;;;;;;;;5078864;28;20033;-72
2021/03/12 03:40:44;;;;;;;366.77;328.13;;;;;;;;;;5080513;28;20099;-67
2021/03/12 03:43:11;;;;;;;357.00;319.25;;;;;;;;;;5072580;28;20473;-67
2021/03/12 03:45:38;;;;;;;334.88;294.63;;;;;;;;;;5069110;28;20435;-66
2021/03/12 03:48:05;;;;;;;339.38;302.05;;;;;;;;;;5072910;28;20082;-66
2021/03/12 03:50:31;;;;;;;361.38;323.63;;;;;;;;;;5079336;28;20039;-66
2021/03/12 03:52:58;;;;;;;374.75;336.30;;;;;;;;;;5077931;28;20063;-77
2021/03/12 03:55:25;;;;;;;366.50;328.10;;;;;;;;;;5077535;28;20028;-67
2021/03/12 03:57:52;;;;;;;412.33;372.05;;;;;;;;;;5072522;28;20431;-66
2021/03/12 04:00:18;;;;;;;373.97;335.33;;;;;;;;;;5083666;28;20036;-67
2021/03/12 04:02:45;;;;;;;1919.82;999.90;;;;;;;;;;5078757;28;20784;-67
2021/03/12 04:05:11;;;;;;;390.80;351.30;;;;;;;;;;5085168;28;20404;-65
2021/03/12 04:07:38;;;;;;;418.00;377.60;;;;;;;;;;5079605;28;20028;-66
2021/03/12 04:10:05;;;;;;;375.80;337.15;;;;;;;;;;5080460;28;20033;-66
2021/03/12 04:12:32;;;;;;;338.58;301.27;;;;;;;;;;5059628;28;20025;-66
2021/03/12 04:14:58;;;;;;;341.43;304.23;;;;;;;;;;5085759;28;20065;-67
2021/03/12 04:17:24;;;;;;;379.63;340.98;;;;;;;;;;5073443;28;20279;-67
2021/03/12 04:19:50;;;;;;;356.80;319.23;;;;;;;;;;5081852;28;20052;-66
2021/03/12 04:22:17;;;;;;;1911.80;999.90;;;;;;;;;;5089684;28;20374;-66
2021/03/12 04:24:44;;;;;;;1152.23;995.10;;;;;;;;;;5060944;28;20141;-66
2021/03/12 04:27:11;;;;;;;362.55;324.55;;;;;;;;;;5071150;28;20056;-67
2021/03/12 04:29:37;;;;;;;365.40;327.33;;;;;;;;;;5072574;28;20036;-68
2021/03/12 04:32:03;;;;;;;368.77;330.50;;;;;;;;;;5070925;28;20040;-68
2021/03/12 04:34:29;;;;;;;1464.72;999.90;;;;;;;;;;5074678;28;20060;-67
2021/03/12 04:36:55;;;;;;;384.70;345.88;;;;;;;;;;5059986;28;20033;-67
2021/03/12 04:39:22;;;;;;;357.60;319.65;;;;;;;;;;5066607;28;20029;-67
2021/03/12 04:41:48;;;;;;;1908.13;999.90;;;;;;;;;;5072293;28;20606;-66
2021/03/12 04:44:14;;;;;;;1464.00;999.90;;;;;;;;;;5067617;28;20121;-66
2021/03/12 04:46:41;;;;;;;380.70;341.65;;;;;;;;;;5073686;28;20531;-67
2021/03/12 04:49:09;;;;;;;376.52;338.02;;;;;;;;;;5080924;28;20027;-66
2021/03/12 04:51:36;;;;;;;371.58;333.42;;;;;;;;;;5075566;28;20107;-66
2021/03/12 04:54:02;;;;;;;;;;;;;;;;;;5083502;28;20036;-75
2021/03/12 04:56:29;;;;;;;1901.72;999.90;;;;;;;;;;5074067;28;19908;-73
2021/03/12 04:58:56;;;;;;;367.38;328.98;;;;;;;;;;5071416;28;20083;-70
2021/03/12 05:01:23;;;;;;;349.20;311.85;;;;;;;;;;5070828;28;20113;-75
2021/03/12 05:03:49;;;;;;;365.77;327.83;;;;;;;;;;5084678;28;20028;-67
2021/03/12 05:06:16;;;;;;;389.55;350.70;;;;;;;;;;5079081;28;20024;-66
2021/03/12 05:08:44;;;;;;;381.48;342.52;;;;;;;;;;5085346;28;20596;-66
2021/03/12 05:11:10;;;;;;;1089.25;963.83;;;;;;;;;;5078299;28;20033;-68
2021/03/12 05:13:36;;;;;;;369.95;331.75;;;;;;;;;;5087473;28;20040;-67
2021/03/12 05:16:03;;;;;;;1999.90;999.90;;;;;;;;;;5082014;28;20572;-77
2021/03/12 05:18:29;;;;;;;1999.90;999.90;;;;;;;;;;5078759;28;20062;-67
2021/03/12 05:20:55;;;;;;;1755.85;999.90;;;;;;;;;;5063093;28;20655;-73
2021/03/12 05:23:22;;;;;;;380.75;341.73;;;;;;;;;;5070335;28;20037;-67
2021/03/12 05:25:48;;;;;;;390.10;350.98;;;;;;;;;;5068204;28;20016;-66
2021/03/12 05:28:14;;;;;;;371.42;333.20;;;;;;;;;;5072253;28;20381;-66
2021/03/12 05:30:40;;;;;;;379.70;341.23;;;;;;;;;;5072706;28;20450;-66
2021/03/12 05:33:06;;;;;;;404.35;364.52;;;;;;;;;;5073292;28;20054;-68
2021/03/12 05:35:33;;;;;;;378.40;339.95;;;;;;;;;;5074615;28;20451;-67
2021/03/12 05:37:59;;;;;;;346.83;309.60;;;;;;;;;;5071478;28;20024;-67
2021/03/12 05:40:25;;;;;;;329.50;287.92;;;;;;;;;;5077969;28;20565;-73
2021/03/12 05:42:55;;;;;;;1463.88;999.90;;;;;;;;;;5075321;28;20029;-66
2021/03/12 05:45:21;;;;;;;351.73;314.15;;;;;;;;;;5079594;28;20472;-70
2021/03/12 05:47:47;;;;;;;352.27;314.63;;;;;;;;;;5064102;28;20028;-76
2021/03/12 05:50:14;;;;;;;380.92;342.23;;;;;;;;;;5073163;28;20024;-67
2021/03/12 05:52:41;;;;;;;332.95;296.17;;;;;;;;;;5078788;28;20488;-77
2021/03/12 05:55:07;;;;;;;1460.22;999.90;;;;;;;;;;5079960;28;20032;-76
2021/03/12 05:57:34;;;;;;;335.35;298.63;;;;;;;;;;5078654;28;20016;-67
2021/03/12 06:00:00;;;;;;;348.25;311.02;;;;;;;;;;5071182;28;20021;-67
2021/03/12 06:02:27;;;;;;;373.40;334.70;;;;;;;;;;5077448;28;20032;-66
2021/03/12 06:04:53;;;;;;;344.77;307.48;;;;;;;;;;5084887;28;20048;-66
2021/03/12 06:07:19;;;;;;;387.45;348.40;;;;;;;;;;5086167;28;20024;-77
2021/03/12 06:09:46;;;;;;;334.33;297.60;;;;;;;;;;5080822;28;20549;-66
2021/03/12 06:12:13;;;;;;;357.65;320.13;;;;;;;;;;5067895;28;20040;-66
2021/03/12 06:14:49;;;;;;;342.85;305.58;;;;;;;;;;5085826;28;20043;-77
2021/03/12 06:17:34;;;;;;;365.92;328.05;;;;;;;;;;5088322;28;20115;-66
2021/03/12 06:20:00;;;;;;;353.00;315.40;;;;;;;;;;5073837;28;20054;-69
2021/03/12 06:22:27;;;;;;;359.70;321.98;;;;;;;;;;5073228;28;20476;-66
2021/03/12 06:24:53;;;;;;;357.80;320.00;;;;;;;;;;5071618;28;20033;-66
2021/03/12 06:27:29;;;;;;;384.77;345.58;;;;;;;;;;5068231;28;20019;-66
2021/03/12 06:29:59;;;;;;;332.73;287.50;;;;;;;;;;5062543;28;20029;-67
2021/03/12 06:32:37;;;;;;;387.95;348.88;;;;;;;;;;5072836;28;20114;-67
2021/03/12 06:35:04;;;;;;;352.77;314.80;;;;;;;;;;5081250;28;20499;-66
2021/03/12 06:37:30;;;;;;;335.60;298.00;;;;;;;;;;5076290;28;20035;-78
2021/03/12 06:39:57;;;;;;;322.15;266.92;;;;;;;;;;5074544;28;20032;-66
2021/03/12 06:42:25;;;;;;;349.43;311.97;;;;;;;;;;5076124;28;20030;-69
2021/03/12 06:44:51;;;;;;;;;;;;;;;;;;5070079;28;20364;-67
2021/03/12 06:47:23;;;;;;;357.38;319.88;;;;;;;;;;5082326;28;19915;-68
2021/03/12 06:49:54;;;;;;;366.05;328.27;;;;;;;;;;5075867;28;20377;-77
2021/03/12 06:52:31;;;;;;;331.55;294.30;;;;;;;;;;5063269;28;20029;-71
2021/03/12 06:54:57;;;;;;;363.90;325.73;;;;;;;;;;5071609;28;20036;-72
2021/03/12 06:57:23;;;;;;;365.88;328.00;;;;;;;;;;5070728;28;20032;-64
2021/03/12 06:59:59;;;;;;;360.67;322.90;;;;;;;;;;5081799;28;20032;-66
2021/03/12 07:02:32;;;;;;;361.27;323.83;;;;;;;;;;5072385;28;20040;-67
2021/03/12 07:04:58;;;;;;;330.92;291.60;;;;;;;;;;5074310;28;20103;-67
2021/03/12 07:07:33;;;;;;;326.38;281.55;;;;;;;;;;5068693;28;20031;-67
2021/03/12 07:09:59;;;;;;;353.80;316.08;;;;;;;;;;5070971;28;20114;-67
2021/03/12 07:12:45;;;;;;;332.92;296.13;;;;;;;;;;5076366;28;20480;-67
2021/03/12 07:15:11;;;;;;;379.70;340.77;;;;;;;;;;5079227;28;20111;-67
2021/03/12 07:17:37;;;;;;;336.33;298.03;;;;;;;;;;5070104;28;20029;-66
2021/03/12 07:20:05;;;;;;;777.53;696.45;;;;;;;;;;5078955;28;20631;-69
2021/03/12 07:22:33;;;;;;;342.88;305.38;;;;;;;;;;5081238;28;20036;-66
2021/03/12 07:25:00;;;;;;;359.10;321.30;;;;;;;;;;5080918;28;20028;-65
2021/03/12 07:27:29;;;;;;;350.45;312.52;;;;;;;;;;5076534;28;20028;-67
2021/03/12 07:29:55;;;;;;;390.95;352.05;;;;;;;;;;5090108;28;20036;-67
2021/03/12 07:32:24;;;;;;;336.50;299.67;;;;;;;;;;5079733;28;20052;-69
2021/03/12 07:34:50;;;;;;;360.70;322.88;;;;;;;;;;5086728;28;20029;-66
2021/03/12 07:37:19;;;;;;;332.90;295.40;;;;;;;;;;5068321;28;20517;-67
2021/03/12 07:39:46;;;;;;;376.80;337.42;;;;;;;;;;5067079;28;20042;-68
2021/03/12 07:42:16;;;;;;;321.35;266.38;;;;;;;;;;5067253;28;20028;-67
2021/03/12 07:44:46;;;;;;;324.95;266.95;;;;;;;;;;5082763;28;20082;-66
2021/03/12 07:47:13;;;;;;;337.90;297.80;;;;;;;;;;5075044;28;20488;-67
2021/03/12 07:49:39;;;;;;;377.55;339.13;;;;;;;;;;5086900;28;20046;-68
2021/03/12 07:52:06;;;;;;;351.17;313.52;;;;;;;;;;5078329;28;20557;-68
2021/03/12 07:54:41;;;;;;;1464.20;999.90;;;;;;;;;;5083660;28;20063;-69
2021/03/12 07:57:07;;;;;;;342.02;304.60;;;;;;;;;;5060382;28;20020;-68
2021/03/12 07:59:49;;;;;;;352.40;314.73;;;;;;;;;;5071975;28;20036;-67
2021/03/12 08:02:18;;;;;;;1912.13;999.90;;;;;;;;;;5070957;28;20183;-67
2021/03/12 08:04:46;;;;;;;884.33;791.80;;;;;;;;;;5073237;28;20021;-67
2021/03/12 08:07:20;;;;;;;395.77;356.40;;;;;;;;;;5069469;28;20024;-69
2021/03/12 08:09:50;;;;;;;352.48;314.83;;;;;;;;;;5070536;28;20107;-67
2021/03/12 08:12:37;;;;;;;1155.57;990.88;;;;;;;;;;5063889;28;20443;-69
2021/03/12 08:15:12;;;;;;;346.15;308.83;;;;;;;;;;5081205;28;20435;-68
2021/03/12 08:17:38;;;;;;;332.05;293.77;;;;;;;;;;5076995;28;20031;-68
2021/03/12 08:20:23;;;;;;;410.80;371.05;;;;;;;;;;5085265;28;20028;-67
2021/03/12 08:22:53;;;;;;;340.17;303.15;;;;;;;;;;5079071;28;20384;-67
2021/03/12 08:25:37;;;;;;;348.52;311.27;;;;;;;;;;5074820;28;20033;-74
2021/03/12 08:28:06;;;;;;;367.80;329.58;;;;;;;;;;5073617;28;20041;-76
2021/03/12 08:30:35;;;;;;;368.52;330.10;;;;;;;;;;5085733;28;20380;-69
2021/03/12 08:33:06;;;;;;;373.45;334.70;;;;;;;;;;5060025;28;20082;-66
2021/03/12 08:35:35;;;;;;;348.27;310.30;;;;;;;;;;5044324;28;20028;-66
2021/03/12 08:38:02;;;;;;;350.15;312.25;;;;;;;;;;5045722;28;20029;-66
2021/03/12 08:40:29;;;;;;;324.42;273.75;;;;;;;;;;5046244;28;20033;-67
2021/03/12 08:43:03;;;;;;;336.75;296.25;;;;;;;;;;5048970;28;20029;-66
2021/03/12 08:45:45;;;;;;;324.83;269.65;;;;;;;;;;5044044;28;20047;-66
2021/03/12 08:48:11;;;;;;;477.50;426.88;;;;;;;;;;5042215;28;20033;-66
2021/03/12 08:50:39;;;;;;;338.75;294.73;;;;;;;;;;5044055;28;20044;-67
2021/03/12 08:53:05;;;;;;;;;;;;;;;;;;5043976;28;20028;-66
2021/03/12 08:55:32;;;;;;;379.70;340.67;;;;;;;;;;5043257;28;20336;-70
2021/03/12 08:58:14;;;;;;;357.20;318.63;;;;;;;;;;5044020;28;20033;-66
2021/03/12 09:00:40;;;;;;;361.00;322.52;;;;;;;;;;5043170;28;20039;-68
2021/03/12 09:03:16;;;;;;;372.75;333.67;;;;;;;;;;5044369;28;20021;-67
2021/03/12 09:05:42;;;;;;;1925.15;999.90;;;;;;;;;;5044488;28;20473;-67
2021/03/12 09:08:09;;;;;;;1910.93;999.90;;;;;;;;;;5048898;28;20115;-73
2021/03/12 09:10:35;;;;;;;360.23;320.88;;;;;;;;;;5044137;28;20036;-67
2021/03/12 09:13:01;;;;;;;368.25;329.35;;;;;;;;;;5044985;28;20051;-67
2021/03/12 09:15:28;;;;;;;367.67;328.67;;;;;;;;;;5043560;28;20396;-71
2021/03/12 09:17:57;;;;;;;1897.40;999.90;;;;;;;;;;5049656;28;20392;-72
2021/03/12 09:20:25;;;;;;;389.85;350.02;;;;;;;;;;5045186;28;20033;-69
2021/03/12 09:22:51;;;;;;;402.77;362.65;;;;;;;;;;5046607;28;20116;-71
2021/03/12 09:25:31;;;;;;;353.57;315.47;;;;;;;;;;5070031;28;20108;-68
2021/03/12 09:28:00;;;;;;;1911.28;999.90;;;;;;;;;;5044926;28;20341;-68
2021/03/12 09:30:27;;;;;;;572.67;513.60;;;;;;;;;;5042892;28;20447;-67
2021/03/12 09:32:53;;;;;;;375.52;336.70;;;;;;;;;;5045125;28;20730;-70
2021/03/12 09:35:20;;;;;;;378.98;340.17;;;;;;;;;;5072026;28;20028;-75
2021/03/12 09:37:46;;;;;;;360.10;322.27;;;;;;;;;;5064851;28;20052;-68
2021/03/12 09:40:27;;;;;;;372.30;333.35;;;;;;;;;;5068819;28;20033;-75
2021/03/12 09:42:54;;;;;;;376.67;337.88;;;;;;;;;;5066276;28;20032;-68
2021/03/12 09:45:21;;;;;;;1462.10;999.90;;;;;;;;;;5059595;28;20063;-77
2021/03/12 09:47:51;;;;;;;346.77;309.35;;;;;;;;;;5074143;28;20032;-71
2021/03/12 09:50:18;;;;;;;1928.90;999.90;;;;;;;;;;5081470;28;20110;-68
2021/03/12 09:52:45;;;;;;;1245.47;999.90;;;;;;;;;;5083209;28;20036;-77
2021/03/12 09:55:11;;;;;;;;;;;;;;;;;;5083835;28;20038;-69
2021/03/12 09:57:37;;;;;;;361.65;323.33;;;;;;;;;;5079772;28;19908;-73
2021/03/12 10:00:07;;;;;;;376.88;338.17;;;;;;;;;;5084028;28;20044;-68
2021/03/12 10:02:33;;;;;;;362.20;324.05;;;;;;;;;;5058559;28;20083;-76
2021/03/12 10:05:05;;;;;;;1463.07;999.90;;;;;;;;;;5087829;28;20695;-69
2021/03/12 10:07:37;;;;;;;333.70;294.35;;;;;;;;;;5078570;28;20481;-70
2021/03/12 10:10:14;;;;;;;1911.25;999.90;;;;;;;;;;5073821;28;20070;-73
2021/03/12 10:12:41;;;;;;;408.70;368.58;;;;;;;;;;5072457;28;20104;-78
2021/03/12 10:15:10;;;;;;;395.42;355.35;;;;;;;;;;5075152;28;20354;-69
2021/03/12 10:17:37;;;;;;;1910.28;999.90;;;;;;;;;;5078088;28;20036;-66
2021/03/12 10:20:18;;;;;;;1914.85;999.90;;;;;;;;;;5084372;28;20092;-70
2021/03/12 10:22:47;;;;;;;355.25;317.27;;;;;;;;;;5071432;28;20560;-68
2021/03/12 10:25:14;;;;;;;365.42;326.80;;;;;;;;;;5074898;28;20028;-71
2021/03/12 10:27:44;;;;;;;360.55;322.70;;;;;;;;;;5081122;28;20032;-67
2021/03/12 10:30:33;;;;;;;343.73;306.55;;;;;;;;;;5086980;28;20548;-68
2021/03/12 10:33:00;;;;;;;351.33;313.90;;;;;;;;;;5067967;28;20098;-69
2021/03/12 10:35:35;;;;;;;349.88;311.92;;;;;;;;;;5053935;28;20043;-68
2021/03/12 10:38:07;;;;;;;347.63;309.90;;;;;;;;;;5072294;28;20519;-68
2021/03/12 10:40:37;;;;;;;365.55;327.27;;;;;;;;;;5072506;28;20060;-67
2021/03/12 10:43:17;;;;;;;360.80;322.35;;;;;;;;;;5059716;28;20078;-70
2021/03/12 10:45:45;;;;;;;354.92;316.80;;;;;;;;;;5076728;28;20024;-74
2021/03/12 10:48:11;;;;;;;340.95;303.83;;;;;;;;;;5087402;28;20107;-68
2021/03/12 10:50:37;;;;;;;363.63;325.30;;;;;;;;;;5082150;28;20082;-67
2021/03/12 10:53:05;;;;;;;337.60;297.52;;;;;;;;;;5073331;28;20043;-69
2021/03/12 10:55:32;;;;;;;335.52;298.55;;;;;;;;;;5076058;28;20021;-68
2021/03/12 10:58:00;;;;;;;381.10;342.17;;;;;;;;;;5076535;28;20116;-73
2021/03/12 11:00:27;;;;;;;383.77;344.63;;;;;;;;;;5079785;28;20093;-68
2021/03/12 11:02:57;;;;;;;334.00;297.17;;;;;;;;;;5077105;28;20082;-77
2021/03/12 11:05:23;;;;;;;358.38;320.27;;;;;;;;;;5075411;28;20040;-67
2021/03/12 11:07:51;;;;;;;360.55;322.13;;;;;;;;;;5073473;28;20373;-68
2021/03/12 11:10:17;;;;;;;366.52;328.38;;;;;;;;;;5079199;28;20024;-80
2021/03/12 11:12:44;;;;;;;337.95;298.75;;;;;;;;;;5076533;28;20025;-75
2021/03/12 11:15:10;;;;;;;;;;;;;;;;;;5071499;28;20048;-73
2021/03/12 11:17:37;;;;;;;324.17;276.23;;;;;;;;;;5072348;28;19913;-66
2021/03/12 11:20:06;;;;;;;394.33;354.92;;;;;;;;;;5071572;28;20028;-69
2021/03/12 11:22:32;;;;;;;323.45;275.45;;;;;;;;;;5072162;28;20112;-68
2021/03/12 11:24:58;;;;;;;346.05;308.45;;;;;;;;;;5073246;28;20174;-66
2021/03/12 11:27:24;;;;;;;335.33;297.85;;;;;;;;;;5071513;28;20830;-67
2021/03/12 11:29:50;;;;;;;368.40;330.25;;;;;;;;;;5066710;28;20071;-68
2021/03/12 11:32:17;;;;;;;352.80;314.90;;;;;;;;;;5069372;28;20056;-69
2021/03/12 11:34:43;;;;;;;342.90;305.75;;;;;;;;;;5069195;28;20051;-68
2021/03/12 11:37:10;;;;;;;340.95;304.02;;;;;;;;;;5070655;28;20038;-67
2021/03/12 11:39:36;;;;;;;339.45;302.55;;;;;;;;;;5075264;28;20024;-77
2021/03/12 11:42:02;;;;;;;362.65;324.73;;;;;;;;;;5064732;28;20469;-68
2021/03/12 11:44:28;;;;;;;380.52;342.05;;;;;;;;;;5073596;28;20107;-71
2021/03/12 11:46:54;;;;;;;373.40;334.70;;;;;;;;;;5071597;28;20028;-67
2021/03/12 11:49:20;;;;;;;357.02;319.02;;;;;;;;;;5075324;28;20455;-68
2021/03/12 11:51:46;;;;;;;353.05;315.55;;;;;;;;;;5067364;28;20036;-68
2021/03/12 11:54:12;;;;;;;905.03;811.28;;;;;;;;;;5081907;28;20071;-67
2021/03/12 11:56:38;;;;;;;330.88;292.83;;;;;;;;;;5080385;28;20377;-68
2021/03/12 11:59:05;;;;;;;348.05;310.90;;;;;;;;;;5077380;28;20499;-68
2021/03/12 12:01:34;;;;;;;329.50;291.85;;;;;;;;;;5072868;28;20054;-66
2021/03/12 12:04:00;;;;;;;352.65;315.15;;;;;;;;;;5072038;28;20047;-67
2021/03/12 12:06:26;;;;;;;358.38;319.98;;;;;;;;;;5055293;28;20487;-71
2021/03/12 12:08:52;;;;;;;369.92;331.10;;;;;;;;;;5054286;28;20029;-71
2021/03/12 12:11:18;;;;;;;349.73;311.65;;;;;;;;;;5055073;28;20033;-72
2021/03/12 12:13:44;;;;;;;336.70;282.73;;;;;;;;;;5055070;28;20028;-68
2021/03/12 12:16:10;;;;;;;343.15;300.95;;;;;;;;;;5058794;28;20217;-69
2021/03/12 12:18:36;;;;;;;1901.72;999.90;;;;;;;;;;5056437;28;20048;-68
2021/03/12 12:21:02;;;;;;;1901.57;999.90;;;;;;;;;;5058051;28;20033;-68
2021/03/12 12:23:28;;;;;;;1902.05;999.90;;;;;;;;;;5057309;28;20028;-68
2021/03/12 12:25:55;;;;;;;471.40;420.83;;;;;;;;;;5050013;28;20024;-67
2021/03/12 12:28:21;;;;;;;361.83;323.50;;;;;;;;;;5058233;28;20024;-68
2021/03/12 12:30:47;;;;;;;357.60;319.25;;;;;;;;;;5055546;28;20039;-67
2021/03/12 12:33:13;;;;;;;354.48;316.25;;;;;;;;;;5058921;28;20040;-68
2021/03/12 12:35:39;;;;;;;388.90;349.52;;;;;;;;;;5054346;28;20091;-67
2021/03/12 12:38:06;;;;;;;353.52;315.50;;;;;;;;;;5056534;28;20468;-68
2021/03/12 12:40:32;;;;;;;340.63;301.05;;;;;;;;;;5057495;28;20056;-67
2021/03/12 12:42:58;;;;;;;346.25;308.33;;;;;;;;;;5053419;28;20096;-67
2021/03/12 12:45:24;;;;;;;364.48;325.80;;;;;;;;;;5057092;28;20033;-67
2021/03/12 12:47:51;;;;;;;370.48;331.85;;;;;;;;;;5056661;28;20099;-68
2021/03/12 12:50:18;;;;;;;1895.78;999.90;;;;;;;;;;5054459;28;20044;-66
2021/03/12 12:52:44;;;;;;;362.40;323.63;;;;;;;;;;5056465;28;20031;-67
2021/03/12 12:55:11;;;;;;;385.95;346.25;;;;;;;;;;5054979;28;20036;-68
2021/03/12 12:57:38;;;;;;;319.70;265.02;;;;;;;;;;5059888;28;20032;-69
2021/03/12 13:00:11;;;;;;;344.05;306.90;;;;;;;;;;5072282;28;20029;-69
2021/03/12 13:02:37;;;;;;;352.55;315.00;;;;;;;;;;5070238;28;20116;-66
2021/03/12 13:05:04;;;;;;;330.95;284.77;;;;;;;;;;5063177;28;20028;-66
2021/03/12 13:07:30;;;;;;;343.38;306.27;;;;;;;;;;5068954;28;20028;-66
2021/03/12 13:09:56;;;;;;;340.05;298.23;;;;;;;;;;5070178;28;20052;-67
2021/03/12 13:12:23;;;;;;;361.85;323.73;;;;;;;;;;5076422;28;20036;-68
2021/03/12 13:14:50;;;;;;;324.65;268.27;;;;;;;;;;5072507;28;20049;-70
2021/03/12 13:17:18;;;;;;;368.15;329.27;;;;;;;;;;5072295;28;20032;-70
2021/03/12 13:19:44;;;;;;;344.00;306.15;;;;;;;;;;5076340;28;20031;-66
2021/03/12 13:22:10;;;;;;;371.83;333.25;;;;;;;;;;5084410;28;20024;-66
2021/03/12 13:24:38;;;;;;;328.83;284.85;;;;;;;;;;5082826;28;20529;-67
2021/03/12 13:27:04;;;;;;;387.58;348.52;;;;;;;;;;5080264;28;20369;-72
2021/03/12 13:29:30;;;;;;;368.42;329.65;;;;;;;;;;5088894;28;20040;-68
2021/03/12 13:31:56;;;;;;;335.88;290.45;;;;;;;;;;5088687;28;20150;-67
2021/03/12 13:34:22;;;;;;;343.90;306.50;;;;;;;;;;5074039;28;20064;-67
2021/03/12 13:36:48;;;;;;;337.65;300.38;;;;;;;;;;5090571;28;20032;-69
2021/03/12 13:39:14;;;;;;;1418.80;999.90;;;;;;;;;;5090856;28;20033;-69
2021/03/12 13:41:40;;;;;;;383.02;344.17;;;;;;;;;;5065541;28;20025;-67
2021/03/12 13:44:10;;;;;;;397.48;357.88;;;;;;;;;;5076382;28;20032;-68
2021/03/12 13:46:36;;;;;;;357.90;320.02;;;;;;;;;;5081968;28;20375;-72
2021/03/12 13:49:03;;;;;;;378.15;339.50;;;;;;;;;;5073544;28;20029;-72
2021/03/12 13:51:29;;;;;;;348.38;311.20;;;;;;;;;;5078347;28;20047;-72
2021/03/12 13:53:55;;;;;;;364.05;325.98;;;;;;;;;;5087038;28;20093;-68
2021/03/12 13:56:21;;;;;;;365.20;327.38;;;;;;;;;;5079112;28;20052;-67